createdAt,value
2022-11-25T00:01:33.527Z,7.27
2022-11-25T00:04:00.585Z,7.25
2022-11-25T00:06:28.145Z,7.23
2022-11-25T00:08:57.478Z,7.23
2022-11-25T00:11:24.010Z,7.20
2022-11-25T00:13:51.065Z,7.19
2022-11-25T00:16:20.676Z,7.19
2022-11-25T00:18:49.912Z,7.19
2022-11-25T00:21:19.629Z,7.21
2022-11-25T00:23:51.469Z,7.21
2022-11-25T00:26:17.944Z,7.22
2022-11-25T00:28:46.042Z,7.21
2022-11-25T00:31:17.832Z,7.21
2022-11-25T00:33:45.068Z,7.21
2022-11-25T00:36:19.250Z,7.20
2022-11-25T00:38:45.989Z,7.20
2022-11-25T00:41:32.056Z,7.20
2022-11-25T00:44:17.460Z,7.20
2022-11-25T00:46:43.893Z,7.19
2022-11-25T00:49:10.356Z,7.20
2022-11-25T00:51:36.762Z,7.21
2022-11-25T00:54:03.314Z,7.21
2022-11-25T00:56:30.374Z,7.20
2022-11-25T00:58:56.948Z,7.20
2022-11-25T01:01:23.836Z,7.22
2022-11-25T01:03:51.604Z,7.23
2022-11-25T01:06:18.121Z,7.22
2022-11-25T01:08:44.728Z,7.23
2022-11-25T01:11:13.879Z,7.27
2022-11-25T01:13:40.483Z,7.29
2022-11-25T01:16:08.476Z,7.30
2022-11-25T01:18:35.171Z,7.30
2022-11-25T01:21:09.989Z,7.32
2022-11-25T01:23:36.653Z,7.33
2022-11-25T01:26:04.890Z,7.34
2022-11-25T01:28:31.841Z,7.34
2022-11-25T01:31:07.027Z,7.35
2022-11-25T01:33:34.832Z,7.35
2022-11-25T01:36:05.867Z,7.36
2022-11-25T01:38:33.152Z,7.38
2022-11-25T01:41:00.123Z,7.36
2022-11-25T01:43:28.450Z,7.41
2022-11-25T01:46:09.279Z,7.43
2022-11-25T01:48:49.103Z,7.44
2022-11-25T01:51:24.199Z,7.45
2022-11-25T01:53:51.863Z,7.45
2022-11-25T01:56:19.097Z,7.47
2022-11-25T01:58:48.766Z,7.49
2022-11-25T02:01:17.158Z,7.48
2022-11-25T02:03:47.651Z,7.47
2022-11-25T02:06:27.907Z,7.51
2022-11-25T02:09:05.376Z,7.53
2022-11-25T02:11:34.658Z,7.58
2022-11-25T02:14:03.017Z,7.60
2022-11-25T02:16:29.515Z,7.65
2022-11-25T02:18:56.129Z,7.69
2022-11-25T02:21:40.154Z,7.72
2022-11-25T02:24:27.500Z,7.75
2022-11-25T02:26:54.150Z,7.73
2022-11-25T02:29:20.621Z,7.73
2022-11-25T02:31:50.202Z,7.75
2022-11-25T02:34:16.856Z,7.74
2022-11-25T02:36:43.192Z,7.75
2022-11-25T02:39:09.949Z,7.77
2022-11-25T02:41:44.341Z,7.78
2022-11-25T02:44:10.718Z,7.82
2022-11-25T02:46:37.041Z,7.84
2022-11-25T02:49:09.328Z,7.83
2022-11-25T02:51:37.280Z,7.87
2022-11-25T02:54:04.434Z,7.87
2022-11-25T02:56:34.354Z,7.89
2022-11-25T02:59:02.018Z,7.91
2022-11-25T03:01:29.594Z,7.94
2022-11-25T03:03:56.046Z,7.96
2022-11-25T03:06:22.621Z,7.98
2022-11-25T03:08:49.153Z,7.99
2022-11-25T03:11:15.806Z,8.00
2022-11-25T03:13:42.137Z,8.01
2022-11-25T03:16:08.766Z,8.03
2022-11-25T03:18:35.316Z,8.05
2022-11-25T03:21:01.941Z,8.07
2022-11-25T03:23:28.359Z,8.06
2022-11-25T03:25:55.368Z,8.08
2022-11-25T03:28:21.761Z,8.07
2022-11-25T03:30:48.107Z,8.06
2022-11-25T03:33:14.486Z,8.06
2022-11-25T03:35:40.857Z,8.06
2022-11-25T03:38:07.181Z,8.06
2022-11-25T03:40:33.556Z,8.06
2022-11-25T03:42:59.929Z,8.05
2022-11-25T03:45:26.317Z,8.05
2022-11-25T03:47:52.692Z,8.05
2022-11-25T03:50:19.163Z,8.07
2022-11-25T03:52:45.695Z,8.06
2022-11-25T03:55:13.048Z,8.06
2022-11-25T03:57:39.819Z,8.03
2022-11-25T04:00:06.942Z,8.04
2022-11-25T04:02:33.373Z,8.01
2022-11-25T04:04:59.829Z,8.00
2022-11-25T04:07:26.430Z,8.00
2022-11-25T04:09:52.814Z,8.01
2022-11-25T04:12:42.022Z,7.99
2022-11-25T04:15:08.774Z,7.96
2022-11-25T04:17:35.163Z,7.93
2022-11-25T04:20:01.701Z,7.91
2022-11-25T04:22:28.037Z,7.89
2022-11-25T04:24:54.339Z,7.89
2022-11-25T04:27:20.774Z,7.88
2022-11-25T04:29:47.292Z,7.88
2022-11-25T04:32:13.686Z,7.87
2022-11-25T04:34:40.661Z,7.88
2022-11-25T04:37:07.057Z,7.85
2022-11-25T04:39:33.371Z,7.82
2022-11-25T04:42:18.436Z,7.84
2022-11-25T04:45:01.044Z,7.81
2022-11-25T04:47:31.998Z,7.76
2022-11-25T04:49:59.094Z,7.73
2022-11-25T04:52:25.749Z,7.70
2022-11-25T04:54:52.049Z,7.67
2022-11-25T04:57:18.541Z,7.66
2022-11-25T04:59:45.478Z,7.62
2022-11-25T05:02:23.554Z,7.62
2022-11-25T05:04:51.713Z,7.63
2022-11-25T05:07:20.214Z,7.57
2022-11-25T05:09:47.357Z,7.50
2022-11-25T05:12:17.470Z,7.42
2022-11-25T05:14:43.994Z,7.34
2022-11-25T05:17:14.043Z,7.35
2022-11-25T05:19:40.441Z,7.24
2022-11-25T05:22:10.970Z,7.24
2022-11-25T05:24:37.663Z,7.18
2022-11-25T05:27:04.264Z,7.10
2022-11-25T05:29:30.605Z,7.07
2022-11-25T05:31:56.958Z,7.04
2022-11-25T05:34:23.482Z,7.04
2022-11-25T05:36:49.925Z,6.97
2022-11-25T05:39:16.289Z,6.89
2022-11-25T05:41:42.676Z,6.81
2022-11-25T05:44:09.046Z,6.73
2022-11-25T05:46:35.851Z,6.76
2022-11-25T05:49:02.289Z,6.71
2022-11-25T05:51:30.727Z,6.80
2022-11-25T05:53:57.486Z,6.75
2022-11-25T05:56:24.358Z,6.71
2022-11-25T05:58:50.874Z,6.64
2022-11-25T06:01:17.545Z,6.62
2022-11-25T06:03:43.962Z,6.64
2022-11-25T06:06:10.918Z,6.69
2022-11-25T06:08:38.576Z,6.72
2022-11-25T06:11:11.897Z,6.87
2022-11-25T06:13:39.437Z,6.79
2022-11-25T06:16:14.731Z,6.77
2022-11-25T06:18:41.588Z,6.80
2022-11-25T06:21:09.905Z,6.87
2022-11-25T06:23:37.379Z,6.87
2022-11-25T06:26:21.286Z,6.88
2022-11-25T06:28:50.373Z,6.89
2022-11-25T06:31:19.633Z,6.84
2022-11-25T06:33:48.101Z,6.81
2022-11-25T06:36:17.257Z,6.82
2022-11-25T06:38:44.853Z,6.74
2022-11-25T06:41:11.237Z,6.73
2022-11-25T06:43:37.649Z,6.72
2022-11-25T06:46:06.125Z,6.75
2022-11-25T06:48:32.729Z,6.74
2022-11-25T06:51:01.626Z,6.69
2022-11-25T06:53:28.250Z,6.65
2022-11-25T06:56:07.932Z,6.60
2022-11-25T06:58:36.576Z,6.66
2022-11-25T07:01:11.589Z,6.69
2022-11-25T07:03:38.055Z,6.62
2022-11-25T07:06:04.617Z,6.55
2022-11-25T07:08:34.176Z,6.65
2022-11-25T07:11:06.644Z,6.62
2022-11-25T07:13:33.425Z,6.55
2022-11-25T07:16:05.009Z,6.56
2022-11-25T07:18:36.811Z,6.59
2022-11-25T07:21:10.049Z,6.60
2022-11-25T07:23:37.517Z,6.53
2022-11-25T07:26:09.143Z,6.50
2022-11-25T07:28:36.645Z,6.55
2022-11-25T07:31:23.332Z,6.60
2022-11-25T07:33:55.745Z,6.58
2022-11-25T07:36:22.510Z,6.54
2022-11-25T07:38:49.264Z,6.50
2022-11-25T07:41:18.143Z,6.44
2022-11-25T07:43:49.292Z,6.42
2022-11-25T07:46:27.321Z,6.44
2022-11-25T07:48:59.737Z,6.49
2022-11-25T07:51:37.501Z,6.61
2022-11-25T07:54:06.857Z,6.61
2022-11-25T07:56:35.415Z,6.65
2022-11-25T07:59:02.585Z,6.66
2022-11-25T08:01:29.068Z,6.69
2022-11-25T08:03:55.522Z,6.72
2022-11-25T08:06:24.867Z,6.76
2022-11-25T08:08:54.531Z,6.79
2022-11-25T08:11:29.586Z,6.86
2022-11-25T08:13:57.077Z,6.94
2022-11-25T08:16:27.259Z,7.06
2022-11-25T08:18:55.136Z,7.34
2022-11-25T08:21:21.491Z,7.56
2022-11-25T08:23:52.408Z,7.49
2022-11-25T08:26:27.717Z,7.42
2022-11-25T08:28:54.494Z,7.42
2022-11-25T08:31:32.369Z,7.43
2022-11-25T08:33:59.295Z,7.50
2022-11-25T08:36:27.382Z,7.75
2022-11-25T08:38:57.724Z,8.13
2022-11-25T08:41:28.825Z,8.42
2022-11-25T08:43:56.425Z,8.72
2022-11-25T08:46:25.595Z,9.04
2022-11-25T08:48:52.110Z,8.97
2022-11-25T08:51:24.122Z,8.90
2022-11-25T08:53:53.578Z,8.69
2022-11-25T08:56:26.008Z,8.60
2022-11-25T08:58:53.342Z,8.67
2022-11-25T09:01:21.577Z,8.63
2022-11-25T09:03:50.480Z,8.72
2022-11-25T09:06:17.380Z,8.99
2022-11-25T09:08:44.388Z,9.23
2022-11-25T09:11:11.584Z,9.25
2022-11-25T09:13:38.091Z,9.42
2022-11-25T09:16:05.519Z,9.46
2022-11-25T09:18:32.540Z,9.48
2022-11-25T09:20:59.591Z,9.69
2022-11-25T09:23:26.660Z,10.21
2022-11-25T09:25:55.592Z,10.86
2022-11-25T09:28:23.266Z,11.37
2022-11-25T09:30:50.331Z,11.10
2022-11-25T09:33:17.646Z,11.33
2022-11-25T09:35:44.508Z,11.44
2022-11-25T09:38:11.365Z,11.95
2022-11-25T09:41:16.002Z,12.32
2022-11-25T09:44:18.898Z,13.05
2022-11-25T09:47:00.265Z,13.09
2022-11-25T09:49:35.789Z,12.70
2022-11-25T09:52:30.020Z,12.20
2022-11-25T09:55:05.652Z,12.90
2022-11-25T09:58:06.345Z,13.45
2022-11-25T10:00:39.035Z,14.12
2022-11-25T10:03:23.060Z,14.58
2022-11-25T10:06:04.033Z,14.71
2022-11-25T10:08:38.046Z,14.55
2022-11-25T10:11:18.596Z,14.74
2022-11-25T10:13:54.363Z,15.03
2022-11-25T10:16:32.571Z,15.48
2022-11-25T10:19:02.547Z,15.39
2022-11-25T10:21:28.927Z,15.54
2022-11-25T10:23:55.473Z,15.51
2022-11-25T10:26:29.158Z,15.99
2022-11-25T10:29:18.217Z,16.38
2022-11-25T10:31:44.782Z,15.60
2022-11-25T10:34:46.203Z,15.43
2022-11-25T10:37:24.032Z,15.98
2022-11-25T10:39:50.431Z,16.11
2022-11-25T10:42:23.544Z,16.74
2022-11-25T10:44:50.053Z,16.87
2022-11-25T10:47:27.828Z,17.12
2022-11-25T10:50:16.106Z,17.35
2022-11-25T10:53:02.500Z,16.97
2022-11-25T10:55:33.409Z,17.32
2022-11-25T10:58:19.531Z,16.55
2022-11-25T11:00:45.865Z,16.40
2022-11-25T11:03:23.951Z,16.49
2022-11-25T11:05:55.793Z,17.04
2022-11-25T11:08:41.033Z,17.20
2022-11-25T11:11:25.395Z,16.35
2022-11-25T11:13:59.675Z,15.40
2022-11-25T11:16:34.151Z,14.84
2022-11-25T11:19:00.817Z,14.82
2022-11-25T11:21:31.735Z,15.61
2022-11-25T11:23:59.797Z,14.95
2022-11-25T11:26:34.515Z,15.06
2022-11-25T11:29:00.793Z,15.01
2022-11-25T11:31:32.543Z,14.94
2022-11-25T11:34:18.316Z,15.30
2022-11-25T11:37:09.086Z,15.81
2022-11-25T11:39:59.883Z,16.57
2022-11-25T11:42:39.858Z,16.45
2022-11-25T11:45:14.917Z,16.46
2022-11-25T11:48:03.904Z,16.23
2022-11-25T11:50:40.722Z,16.35
2022-11-25T11:53:30.837Z,16.07
2022-11-25T11:56:36.146Z,16.27
2022-11-25T11:59:24.374Z,16.45
2022-11-25T12:02:18.725Z,16.69
2022-11-25T12:05:10.594Z,16.64
2022-11-25T12:08:04.682Z,16.70
2022-11-25T12:10:40.758Z,17.22
2022-11-25T12:13:27.265Z,17.34
2022-11-25T12:16:10.304Z,16.97
2022-11-25T12:18:47.365Z,17.07
2022-11-25T12:21:37.474Z,17.07
2022-11-25T12:24:19.684Z,16.23
2022-11-25T12:26:56.853Z,14.96
2022-11-25T12:29:36.530Z,14.45
2022-11-25T12:32:26.756Z,14.08
2022-11-25T12:35:27.766Z,13.25
2022-11-25T12:38:05.084Z,12.61
2022-11-25T12:40:42.594Z,13.55
2022-11-25T12:43:27.581Z,14.86
2022-11-25T12:46:05.619Z,15.07
2022-11-25T12:48:40.953Z,14.84
2022-11-25T12:51:36.839Z,15.56
2022-11-25T12:54:32.486Z,15.64
2022-11-25T12:57:24.111Z,16.22
2022-11-25T13:00:44.705Z,15.80
2022-11-25T13:03:48.492Z,15.35
2022-11-25T13:06:39.693Z,15.28
2022-11-25T13:09:12.122Z,14.09
2022-11-25T13:12:00.711Z,13.46
2022-11-25T13:15:09.577Z,12.93
2022-11-25T13:17:41.449Z,12.50
2022-11-25T13:20:29.426Z,12.12
2022-11-25T13:23:05.176Z,11.93
2022-11-25T13:25:32.554Z,11.86
2022-11-25T13:28:01.534Z,11.80
2022-11-25T13:30:33.733Z,11.67
2022-11-25T13:33:09.100Z,11.74
2022-11-25T13:35:36.612Z,11.71
2022-11-25T13:38:08.346Z,11.79
2022-11-25T13:40:39.118Z,11.66
2022-11-25T13:43:19.954Z,11.68
2022-11-25T13:45:46.673Z,11.75
2022-11-25T13:48:17.501Z,11.69
2022-11-25T13:51:03.369Z,11.59
2022-11-25T13:53:35.316Z,11.48
2022-11-25T13:56:20.382Z,11.50
2022-11-25T13:59:11.763Z,11.43
2022-11-25T14:01:40.740Z,11.33
2022-11-25T14:04:08.990Z,11.28
2022-11-25T14:06:52.477Z,11.24
2022-11-25T14:09:42.126Z,11.20
2022-11-25T14:12:31.669Z,11.15
2022-11-25T14:15:14.409Z,11.12
2022-11-25T14:18:24.416Z,10.96
2022-11-25T14:21:05.612Z,10.79
2022-11-25T14:23:47.454Z,10.75
2022-11-25T14:26:48.903Z,10.91
2022-11-25T14:29:31.729Z,11.11
2022-11-25T14:32:21.413Z,11.10
2022-11-25T14:34:52.870Z,11.00
2022-11-25T14:38:09.029Z,10.86
2022-11-25T14:40:54.574Z,10.78
2022-11-25T14:43:24.769Z,10.65
2022-11-25T14:46:11.058Z,10.57
2022-11-25T14:48:37.851Z,10.57
2022-11-25T14:51:07.244Z,10.50
2022-11-25T14:53:48.852Z,10.40
2022-11-25T14:56:21.995Z,10.29
2022-11-25T14:58:51.062Z,10.18
2022-11-25T15:01:23.610Z,10.11
2022-11-25T15:03:51.916Z,10.06
2022-11-25T15:06:22.261Z,10.02
2022-11-25T15:08:59.273Z,9.98
2022-11-25T15:11:31.399Z,9.91
2022-11-25T15:14:01.770Z,9.78
2022-11-25T15:16:46.798Z,9.71
2022-11-25T15:19:17.939Z,9.65
2022-11-25T15:22:20.752Z,9.61
2022-11-25T15:24:40.333Z,9.55
2022-11-25T15:27:25.354Z,9.51
2022-11-25T15:29:52.975Z,9.47
2022-11-25T15:32:32.772Z,9.42
2022-11-25T15:35:01.391Z,9.40
2022-11-25T15:37:28.606Z,9.38
2022-11-25T15:40:29.118Z,9.37
2022-11-25T15:42:57.367Z,9.34
2022-11-25T15:45:23.773Z,9.31
2022-11-25T15:47:50.236Z,9.29
2022-11-25T15:50:18.818Z,9.30
2022-11-25T15:52:48.728Z,9.25
2022-11-25T15:55:30.037Z,9.18
2022-11-25T15:58:00.902Z,9.09
2022-11-25T16:00:27.437Z,9.02
2022-11-25T16:02:57.376Z,9.03
2022-11-25T16:05:26.745Z,8.95
2022-11-25T16:07:53.065Z,8.83
2022-11-25T16:10:30.845Z,8.66
2022-11-25T16:13:22.964Z,8.57
2022-11-25T16:16:07.788Z,8.39
2022-11-25T16:18:47.840Z,8.28
2022-11-25T16:21:19.640Z,8.11
2022-11-25T16:23:50.683Z,8.01
2022-11-25T16:26:32.572Z,7.91
2022-11-25T16:29:00.675Z,7.89
2022-11-25T16:31:27.582Z,7.86
2022-11-25T16:34:18.391Z,7.72
2022-11-25T16:36:45.011Z,7.73
2022-11-25T16:39:11.445Z,7.75
2022-11-25T16:41:38.406Z,7.61
2022-11-25T16:44:08.737Z,7.54
2022-11-25T16:46:35.279Z,7.49
2022-11-25T16:49:08.000Z,7.42
2022-11-25T16:51:34.405Z,7.23
2022-11-25T16:54:00.814Z,7.05
2022-11-25T16:56:28.615Z,6.94
2022-11-25T16:58:55.558Z,6.87
2022-11-25T17:01:25.942Z,6.79
2022-11-25T17:03:52.543Z,6.75
2022-11-25T17:06:22.840Z,6.69
2022-11-25T17:08:49.942Z,6.70
2022-11-25T17:11:43.270Z,6.62
2022-11-25T17:14:24.877Z,6.51
2022-11-25T17:16:51.535Z,6.52
2022-11-25T17:19:18.102Z,6.39
2022-11-25T17:21:44.503Z,6.34
2022-11-25T17:24:17.449Z,6.23
2022-11-25T17:26:46.931Z,6.21
2022-11-25T17:29:16.853Z,6.16
2022-11-25T17:31:44.166Z,6.14
2022-11-25T17:34:15.257Z,6.28
2022-11-25T17:36:43.463Z,6.38
2022-11-25T17:39:11.784Z,6.46
2022-11-25T17:41:47.647Z,6.51
2022-11-25T17:44:23.052Z,6.38
2022-11-25T17:46:49.453Z,6.24
2022-11-25T17:49:15.935Z,6.15
2022-11-25T17:51:43.736Z,6.12
2022-11-25T17:54:11.222Z,6.06
2022-11-25T17:56:39.263Z,6.01
2022-11-25T17:59:11.820Z,5.97
2022-11-25T18:01:38.514Z,5.94
2022-11-25T18:04:16.780Z,5.84
2022-11-25T18:06:43.241Z,5.78
2022-11-25T18:09:09.901Z,5.75
2022-11-25T18:11:36.654Z,5.68
2022-11-25T18:14:03.021Z,5.66
2022-11-25T18:16:31.104Z,5.53
2022-11-25T18:18:57.924Z,5.47
2022-11-25T18:21:26.353Z,5.42
2022-11-25T18:23:53.572Z,5.36
2022-11-25T18:26:20.372Z,5.31
2022-11-25T18:28:46.966Z,5.29
2022-11-25T18:31:13.591Z,5.17
2022-11-25T18:33:40.473Z,5.10
2022-11-25T18:36:11.153Z,4.99
2022-11-25T18:38:37.455Z,5.01
2022-11-25T18:41:03.904Z,5.01
2022-11-25T18:43:33.197Z,5.11
2022-11-25T18:45:59.669Z,5.16
2022-11-25T18:48:27.014Z,5.23
2022-11-25T18:50:55.900Z,5.21
2022-11-25T18:53:22.329Z,5.09
2022-11-25T18:55:49.435Z,5.01
2022-11-25T18:58:18.612Z,4.97
2022-11-25T19:00:48.452Z,4.97
2022-11-25T19:03:21.984Z,4.99
2022-11-25T19:05:49.060Z,4.89
2022-11-25T19:08:15.526Z,4.82
2022-11-25T19:10:44.361Z,4.74
2022-11-25T19:13:33.187Z,4.64
2022-11-25T19:16:07.691Z,4.60
2022-11-25T19:18:35.458Z,4.49
2022-11-25T19:21:01.844Z,4.41
2022-11-25T19:23:28.739Z,4.28
2022-11-25T19:26:00.342Z,4.28
2022-11-25T19:28:27.991Z,4.29
2022-11-25T19:30:59.298Z,4.28
2022-11-25T19:33:37.965Z,4.22
2022-11-25T19:36:05.672Z,4.15
2022-11-25T19:38:33.015Z,4.17
2022-11-25T19:40:59.369Z,4.16
2022-11-25T19:43:29.131Z,4.20
2022-11-25T19:45:56.941Z,4.32
2022-11-25T19:48:29.361Z,4.31
2022-11-25T19:51:04.596Z,4.27
2022-11-25T19:53:34.080Z,4.22
2022-11-25T19:56:04.581Z,4.21
2022-11-25T19:58:31.897Z,4.25
2022-11-25T20:01:02.160Z,4.20
2022-11-25T20:03:30.694Z,4.17
2022-11-25T20:05:57.494Z,4.13
2022-11-25T20:08:26.692Z,4.09
2022-11-25T20:10:54.356Z,4.09
2022-11-25T20:13:22.715Z,4.08
2022-11-25T20:15:49.580Z,4.11
2022-11-25T20:18:19.471Z,4.08
2022-11-25T20:20:49.070Z,3.99
2022-11-25T20:23:29.103Z,3.94
2022-11-25T20:25:56.165Z,3.85
2022-11-25T20:28:29.917Z,3.81
2022-11-25T20:31:00.112Z,3.88
2022-11-25T20:33:26.981Z,3.97
2022-11-25T20:36:03.351Z,3.96
2022-11-25T20:38:32.527Z,3.94
2022-11-25T20:41:00.113Z,3.90
2022-11-25T20:43:36.638Z,3.90
2022-11-25T20:46:03.504Z,3.86
2022-11-25T20:48:30.242Z,3.93
2022-11-25T20:51:01.251Z,3.92
2022-11-25T20:53:31.926Z,3.93
2022-11-25T20:55:58.580Z,3.92
2022-11-25T20:58:30.379Z,3.88
2022-11-25T21:00:58.088Z,3.73
2022-11-25T21:03:25.538Z,3.64
2022-11-25T21:05:53.755Z,3.72
2022-11-25T21:08:24.089Z,3.75
2022-11-25T21:10:52.745Z,3.72
2022-11-25T21:13:22.300Z,3.72
2022-11-25T21:15:54.734Z,3.87
2022-11-25T21:18:22.270Z,3.85
2022-11-25T21:20:51.212Z,3.76
2022-11-25T21:23:37.674Z,3.72
2022-11-25T21:26:07.226Z,3.67
2022-11-25T21:28:41.126Z,3.62
2022-11-25T21:31:11.276Z,3.60
2022-11-25T21:33:37.748Z,3.58
2022-11-25T21:36:04.243Z,3.63
2022-11-25T21:38:30.573Z,3.71
2022-11-25T21:40:58.334Z,3.71
2022-11-25T21:43:29.302Z,3.71
2022-11-25T21:46:00.863Z,3.63
2022-11-25T21:48:27.513Z,3.49
2022-11-25T21:50:53.981Z,3.50
2022-11-25T21:53:20.462Z,3.55
2022-11-25T21:55:47.810Z,3.59
2022-11-25T21:58:24.458Z,3.60
2022-11-25T22:00:54.281Z,3.63
2022-11-25T22:03:22.459Z,3.71
2022-11-25T22:05:49.324Z,3.68
2022-11-25T22:08:15.876Z,3.79
2022-11-25T22:10:46.216Z,3.83
2022-11-25T22:13:18.229Z,3.76
2022-11-25T22:15:45.753Z,3.70
2022-11-25T22:18:19.123Z,3.60
2022-11-25T22:20:50.622Z,3.58
2022-11-25T22:23:20.723Z,3.64
2022-11-25T22:25:48.794Z,3.63
2022-11-25T22:28:16.769Z,3.62
2022-11-25T22:30:50.536Z,3.59
2022-11-25T22:33:17.746Z,3.59
2022-11-25T22:35:44.226Z,3.57
2022-11-25T22:38:17.542Z,3.54
2022-11-25T22:40:46.419Z,3.62
2022-11-25T22:43:21.262Z,3.59
2022-11-25T22:45:47.862Z,3.54
2022-11-25T22:48:18.130Z,3.46
2022-11-25T22:50:45.647Z,3.41
2022-11-25T22:53:17.931Z,3.43
2022-11-25T22:55:45.231Z,3.50
2022-11-25T22:58:13.126Z,3.54
2022-11-25T23:00:42.620Z,3.63
2022-11-25T23:03:29.331Z,3.54
2022-11-25T23:05:56.629Z,3.50
2022-11-25T23:08:26.478Z,3.49
2022-11-25T23:10:53.821Z,3.57
2022-11-25T23:13:20.478Z,3.61
2022-11-25T23:15:55.481Z,3.59
2022-11-25T23:18:37.977Z,3.61
2022-11-25T23:21:25.506Z,3.64
2022-11-25T23:23:52.346Z,3.69
2022-11-25T23:26:18.768Z,3.60
2022-11-25T23:28:45.577Z,3.54
2022-11-25T23:31:14.208Z,3.49
2022-11-25T23:33:44.024Z,3.55
2022-11-25T23:36:25.762Z,3.60
2022-11-25T23:39:00.794Z,3.60
2022-11-25T23:41:30.416Z,3.64
2022-11-25T23:43:58.368Z,3.56
2022-11-25T23:46:31.865Z,3.61
2022-11-25T23:49:01.773Z,3.57
2022-11-25T23:51:29.525Z,3.60
2022-11-25T23:53:58.184Z,3.53
2022-11-25T23:56:26.867Z,3.57
2022-11-25T23:58:53.241Z,3.51
